Latest Coastal Weather Observations for Geelong Racecourse

IDV60701

Issued at 8:31 pm EDT Wednesday 7 December 2022 (issued every 10 minutes, with the page automatically refreshed every 10 minutes)

About coastal observations | Map of coastal stations | Coastal observations for VIC | Marine services | Other Formats
Station Details ID: 087184 Name: GEELONG RACECOURSE Lat: -38.17 Lon: 144.38 Height: 12.9 m
Data from the previous 72 hours. | See also: Recent months at Geelong Racecourse
Date/Time
EDT
Wind Sea
Height
m
Swell Vis
km
Cloud Weather Temp
°C
Press
MSL
hPa
Rain since
9am
mm
Dir  Spd
kts
Gust
kts
Height
m
Period
s
Dir
07/08:30pm WSW 10 14 - - - - - - - 13.0 1007.8 0.2
07/08:00pm WSW 13 19 - - - - - - - 13.4 1007.1 0.2
07/07:30pm WSW 13 19 - - - - - - - 13.9 1006.6 0.2
07/07:00pm WSW 12 18 - - - - - - - 13.7 1005.9 0.2
07/06:30pm W 16 23 - - - - - - - 15.7 1005.1 0.0
07/06:21pm W 15 26 - - - - - - - 16.7 1004.9 0.0
07/06:00pm W 16 25 - - - - - - - 17.1 1004.8 0.0
07/05:30pm WSW 15 22 - - - - - - - 18.5 1004.3 0.0
07/05:00pm WSW 14 24 - - - - - - - 19.3 1004.5 0.0
07/04:30pm W 16 23 - - - - - - - 19.2 1004.4 0.0
07/04:00pm W 15 22 - - - - - - - 19.6 1004.4 0.0
07/03:30pm W 13 21 - - - - - - - 20.0 1004.5 0.0
07/03:00pm SSW 8 13 - - - - - - - 17.5 1004.6 0.0
07/02:30pm S 12 15 - - - - - - - 17.7 1004.6 0.0
07/02:00pm S 12 19 - - - - - - - 17.3 1004.7 0.0
07/01:30pm S 11 17 - - - - - - - 17.6 1004.7 0.0
07/01:00pm S 10 15 - - - - - - - 16.4 1004.7 0.0
07/12:30pm SSW 8 11 - - - - - - - 17.6 1004.6 0.0
07/12:00pm SW 6 13 - - - - - - - 17.8 1004.7 0.0
07/11:30am SSW 10 14 - - - - - - - 16.6 1005.0 0.0
07/11:00am SSW 7 10 - - - - - - - 17.2 1004.8 0.0
07/10:30am SW 5 9 - - - - - - - 18.0 1004.7 0.0
07/10:00am SSW 5 8 - - - - - - - 17.1 1004.6 0.0
07/09:30am SSW 4 7 - - - - - - - 16.5 1004.6 0.0
07/09:00am SW 6 7 - - - - - - - 16.1 1004.6 0.0
07/08:30am SW 5 6 - - - - - - - 15.9 1004.8 0.0
07/08:00am SW 4 6 - - - - - - - 14.9 1004.6 0.0
07/07:30am SW 4 5 - - - - - - - 13.2 1004.3 0.0
07/07:00am CALM 0 0 - - - - - - - 11.5 1004.1 0.0
07/06:30am CALM 0 0 - - - - - - - 9.4 1004.0 0.0
07/06:00am CALM 0 0 - - - - - - - 9.4 1004.1 0.0
07/05:30am CALM 0 0 - - - - - - - 9.7 1003.9 0.0
07/05:00am CALM 0 0 - - - - - - - 10.0 1003.8 0.0
07/04:30am CALM 0 0 - - - - - - - 10.5 1004.0 0.0
07/04:00am CALM 0 0 - - - - - - - 10.6 1004.1 0.0
07/03:30am CALM 0 0 - - - - - - - 10.6 1004.5 0.0
07/03:00am CALM 0 0 - - - - - - - 11.0 1004.8 0.0
07/02:30am CALM 0 0 - - - - - - - 11.7 1005.1 0.0
07/02:00am SW 1 2 - - - - - - - 12.2 1005.7 0.0
07/01:30am CALM 0 1 - - - - - - - 11.8 1006.0 0.0
07/01:00am CALM 0 0 - - - - - - - 11.8 1006.2 0.0
07/12:30am S 2 3 - - - - - - - 12.1 1006.6 0.0
07/12:00am CALM 0 3 - - - - - - - 12.1 1006.9 0.0
 
Date/Time
EDT
Wind Sea
Height
m
Swell Vis
km
Cloud Weather Temp
°C
Press
MSL
hPa
Rain since
9am
mm
Dir  Spd
kts
Gust
kts
Height
m
Period
s
Dir
06/11:30pm CALM 0 0 - - - - - - - 12.1 1007.4 0.0
06/11:00pm SSE 1 3 - - - - - - - 12.6 1007.5 0.0
06/10:30pm SSE 4 6 - - - - - - - 12.9 1007.8 0.0
06/10:00pm SSE 4 6 - - - - - - - 12.9 1008.1 0.0
06/09:30pm SSE 5 7 - - - - - - - 13.3 1008.1 0.0
06/09:00pm SSE 5 7 - - - - - - - 13.9 1008.1 0.0
06/08:30pm SSE 6 8 - - - - - - - 14.5 1007.9 0.0
06/08:00pm SSE 7 11 - - - - - - - 14.8 1008.0 0.0
06/07:30pm SSE 7 10 - - - - - - - 15.4 1008.0 0.0
06/07:00pm SSE 8 12 - - - - - - - 16.6 1007.9 0.0
06/06:30pm SSE 8 13 - - - - - - - 17.0 1007.9 0.0
06/06:00pm SSE 9 13 - - - - - - - 17.1 1007.9 0.0
06/05:30pm SSE 8 13 - - - - - - - 17.8 1008.3 0.0
06/05:00pm SSE 9 14 - - - - - - - 17.9 1008.4 0.0
06/04:30pm S 9 16 - - - - - - - 18.4 1009.1 0.0
06/04:00pm SSE 10 15 - - - - - - - 18.6 1009.2 0.0
06/03:30pm SSE 8 13 - - - - - - - 19.2 1009.3 0.0
06/03:00pm SE 7 11 - - - - - - - 19.0 1009.4 0.0
06/02:30pm SE 8 13 - - - - - - - 18.6 1009.7 0.0
06/02:00pm SE 7 13 - - - - - - - 17.2 1010.0 0.0
06/01:30pm SSE 6 11 - - - - - - - 17.7 1010.5 0.0
06/01:00pm NNE 5 8 - - - - - - - 17.4 1010.7 0.0
06/12:30pm ESE 6 15 - - - - - - - 18.4 1011.1 0.0
06/12:00pm NE 4 8 - - - - - - - 17.4 1011.4 0.0
06/11:30am ENE 5 8 - - - - - - - 18.3 1011.5 0.0
06/11:00am ESE 6 9 - - - - - - - 16.7 1011.6 0.0
06/10:30am ESE 5 8 - - - - - - - 17.1 1011.7 0.0
06/10:00am ENE 4 6 - - - - - - - 15.8 1011.9 0.0
06/09:30am E 4 6 - - - - - - - 15.4 1012.4 0.0
06/09:00am SE 8 11 - - - - - - - 16.8 1012.4 0.0
06/08:30am SSE 8 11 - - - - - - - 14.9 1012.3 0.0
06/08:00am SSE 10 14 - - - - - - - 15.9 1012.2 0.0
06/07:30am S 8 11 - - - - - - - 15.1 1011.9 0.0
06/07:00am WSW 4 6 - - - - - - - 13.0 1011.8 0.0
06/06:30am WSW 4 5 - - - - - - - 11.6 1011.7 0.0
06/06:00am SW 6 7 - - - - - - - 12.2 1011.6 0.0
06/05:30am SW 7 10 - - - - - - - 12.7 1011.6 0.0
06/05:00am SW 7 10 - - - - - - - 12.6 1011.7 0.0
06/04:30am SW 7 10 - - - - - - - 12.8 1011.8 0.0
06/04:00am SW 8 11 - - - - - - - 13.1 1012.0 0.0
06/03:30am SW 7 10 - - - - - - - 13.1 1012.0 0.0
06/03:00am SW 8 11 - - - - - - - 13.4 1012.0 0.0
06/02:30am SW 9 12 - - - - - - - 13.2 1012.1 0.0
06/02:00am SW 10 15 - - - - - - - 12.9 1012.3 0.0
06/01:30am SW 10 14 - - - - - - - 12.8 1012.5 0.0
06/01:00am SW 11 17 - - - - - - - 12.9 1012.8 0.0
06/12:30am SSW 10 15 - - - - - - - 12.8 1013.2 0.0
06/12:00am SW 11 16 - - - - - - - 12.9 1013.5 0.0
 
Date/Time
EDT
Wind Sea
Height
m
Swell Vis
km
Cloud Weather Temp
°C
Press
MSL
hPa
Rain since
9am
mm
Dir  Spd
kts
Gust
kts
Height
m
Period
s
Dir
05/11:30pm SW 11 18 - - - - - - - 13.1 1013.8 0.0
05/11:00pm SSW 12 20 - - - - - - - 13.3 1013.9 0.0
05/10:30pm SW 12 16 - - - - - - - 13.4 1014.2 0.0
05/10:00pm SW 14 18 - - - - - - - 13.4 1014.3 0.0
05/09:30pm SW 14 19 - - - - - - - 13.6 1014.1 0.0
05/09:00pm SW 15 20 - - - - - - - 13.8 1013.9 0.0
05/08:30pm SW 17 23 - - - - - - - 13.7 1013.7 0.0
05/08:00pm SW 15 22 - - - - - - - 14.2 1013.5 0.0
05/07:30pm SSW 15 23 - - - - - - - 14.2 1013.4 0.0
05/07:00pm SW 17 26 - - - - - - - 15.0 1013.1 0.0
05/06:30pm SW 16 24 - - - - - - - 14.6 1012.8 0.0
05/06:00pm SW 16 23 - - - - - - - 15.0 1012.6 0.0
05/05:30pm SSW 16 26 - - - - - - - 13.6 1012.6 0.0
05/05:00pm SW 17 24 - - - - - - - 15.2 1012.4 0.0
05/04:35pm SW 17 27 - - - - - - - 16.2 1012.3 0.0
05/04:30pm SW 16 22 - - - - - - - 15.7 1012.4 0.0
05/04:27pm SW 18 29 - - - - - - - 15.1 1012.5 0.0
05/04:00pm SW 20 29 - - - - - - - 16.5 1012.3 0.0
05/03:30pm SW 20 28 - - - - - - - 16.3 1012.3 0.0
05/03:00pm SW 17 25 - - - - - - - 17.6 1012.2 0.0
05/02:32pm SW 16 26 - - - - - - - 17.1 1012.3 0.0
05/02:30pm SW 16 24 - - - - - - - 17.0 1012.3 0.0
05/02:00pm SSW 16 26 - - - - - - - 16.3 1012.3 0.0
05/01:59pm SSW 16 26 - - - - - - - 15.9 1012.3 0.0
05/01:30pm SSW 16 26 - - - - - - - 15.5 1012.3 0.0
05/01:00pm SW 17 23 - - - - - - - 17.0 1012.0 0.0
05/12:30pm SSW 17 22 - - - - - - - 16.3 1011.9 0.0
05/12:00pm SW 18 30 - - - - - - - 16.1 1011.7 0.0
05/11:30am SW 18 27 - - - - - - - 17.0 1011.4 0.0
05/11:06am SW 20 31 - - - - - - - 16.1 1011.2 0.0
05/11:00am SW 19 28 - - - - - - - 16.9 1011.1 0.0
05/10:37am SSW 16 26 - - - - - - - 17.6 1010.9 0.0
05/10:30am SSW 20 28 - - - - - - - 16.5 1011.0 0.0
05/10:22am SSW 17 27 - - - - - - - 17.2 1011.0 0.0
05/10:00am SSW 17 26 - - - - - - - 17.3 1010.7 0.0
05/09:30am SSW 19 33 - - - - - - - 15.2 1010.8 0.0
05/09:22am SSW 16 33 - - - - - - - 15.8 1010.8 0.0
05/09:00am SSW 16 23 - - - - - - - 15.9 1010.4 0.0
05/08:30am SW 13 20 - - - - - - - 14.9 1010.2 0.0
05/08:00am SW 11 18 - - - - - - - 14.7 1009.8 0.0
05/07:30am SSW 13 18 - - - - - - - 14.3 1009.5 0.0
05/07:00am SSW 15 20 - - - - - - - 14.7 1009.1 0.0
05/06:30am SW 13 19 - - - - - - - 15.5 1008.7 0.0
05/06:00am SW 11 15 - - - - - - - 16.0 1008.2 0.0
05/05:30am WSW 7 11 - - - - - - - 16.0 1007.8 0.0
05/05:00am W 8 13 - - - - - - - 16.4 1007.3 0.0
05/04:30am W 10 15 - - - - - - - 16.9 1007.0 0.0
05/04:00am W 9 14 - - - - - - - 16.9 1006.9 0.0
05/03:30am W 11 16 - - - - - - - 17.0 1006.5 0.0
05/03:00am W 9 15 - - - - - - - 17.2 1006.5 0.0
05/02:30am W 10 15 - - - - - - - 17.2 1006.4 0.0
05/02:00am W 10 16 - - - - - - - 17.1 1006.6 0.0
05/01:30am W 11 17 - - - - - - - 17.4 1006.2 0.0
05/01:00am W 10 15 - - - - - - - 18.0 1006.1 0.0
05/12:30am W 11 15 - - - - - - - 19.2 1006.5 0.0
05/12:00am NW 6 16 - - - - - - - 21.5 1006.5 0.0
 
Date/Time
EDT
Wind Sea
Height
m
Swell Vis
km
Cloud Weather Temp
°C
Press
MSL
hPa
Rain since
9am
mm
Dir  Spd
kts
Gust
kts
Height
m
Period
s
Dir
04/11:30pm WSW 5 7 - - - - - - - 21.1 1006.0 0.0
04/11:00pm SSW 7 9 - - - - - - - 21.1 1005.3 0.0
04/10:30pm SW 12 17 - - - - - - - 22.1 1005.4 0.0
04/10:00pm CALM 0 0 - - - - - - - 23.3 1004.4 0.0
04/09:30pm WSW 1 3 - - - - - - - 23.0 1004.5 0.0
04/09:00pm SW 4 5 - - - - - - - 22.5 1004.5 0.0

Other formats

Comma delimited format used in spreadsheet applications
http://www.bom.gov.au/fwo/IDV60701/IDV60701.94857.axf

JavaScript Object Notation format (JSON) in row-major order
http://www.bom.gov.au/fwo/IDV60701/IDV60701.94857.json

Data quality

Most of these data are generated automatically and are frequently updated. Quality checks on data are not normally performed. It is possible for incorrect values to appear. Refer to information at About Latest Weather Observations and please check the disclaimer before using these data.